Time;durP1;ratioP1;P1;durP2;ratioP2;P2;SDS_P1;SDS_P2;PMS_P1;PMS_P2;Temp;Humidity;BMP_temperature;BMP_pressure;BME280_temperature;BME280_humidity;BME280_pressure;Samples;Min_cycle;Max_cycle;Signal;HPM_P1;HPM_P2
2022/02/20 00:00:46;;;;;;;7.70;1.92;;;8.40;99.90;;;;;;5051745;28;20387;-82
2022/02/20 00:03:11;;;;;;;6.93;1.70;;;8.40;99.90;;;;;;5051600;28;20052;-82
2022/02/20 00:05:37;;;;;;;5.47;1.60;;;8.40;99.90;;;;;;5051936;28;20419;-82
2022/02/20 00:08:04;;;;;;;9.00;1.70;;;8.40;99.90;;;;;;5051795;28;20477;-82
2022/02/20 00:10:30;;;;;;;7.97;2.03;;;8.30;99.90;;;;;;5051783;28;20036;-83
2022/02/20 00:12:57;;;;;;;8.02;1.95;;;8.40;99.90;;;;;;5051791;28;20029;-83
2022/02/20 00:15:23;;;;;;;5.28;1.48;;;8.40;99.90;;;;;;5051637;28;20396;-82
2022/02/20 00:17:50;;;;;;;6.88;1.23;;;8.30;99.90;;;;;;5051636;28;20068;-82
2022/02/20 00:20:18;;;;;;;11.35;2.03;;;8.30;99.90;;;;;;5051612;28;20025;-84
2022/02/20 00:22:44;;;;;;;7.50;1.70;;;8.30;99.90;;;;;;5051421;28;20074;-82
2022/02/20 00:25:10;;;;;;;5.63;1.58;;;8.30;99.90;;;;;;5053309;28;20037;-82
2022/02/20 00:27:35;;;;;;;4.07;1.58;;;8.30;99.90;;;;;;5055565;28;20072;-82
2022/02/20 00:30:01;;;;;;;6.57;1.67;;;8.30;99.90;;;;;;5055531;28;20111;-81
2022/02/20 00:32:28;;;;;;;5.30;1.65;;;8.30;99.90;;;;;;5055621;28;20035;-84
2022/02/20 00:34:53;;;;;;;4.88;1.35;;;8.30;99.90;;;;;;5055516;28;20029;-81
2022/02/20 00:37:19;;;;;;;8.23;1.70;;;8.30;99.90;;;;;;5055411;28;20025;-82
2022/02/20 00:39:45;;;;;;;7.35;1.73;;;8.30;99.90;;;;;;5055417;28;20021;-83
2022/02/20 00:42:11;;;;;;;8.10;1.50;;;8.20;99.90;;;;;;5055293;28;20030;-82
2022/02/20 00:44:36;;;;;;;7.35;1.90;;;8.20;99.90;;;;;;5056539;28;20029;-82
2022/02/20 00:47:02;;;;;;;7.43;1.92;;;8.20;99.90;;;;;;5056917;28;20021;-84
2022/02/20 00:49:28;;;;;;;6.45;1.73;;;8.20;99.90;;;;;;5055231;28;20021;-82
2022/02/20 00:51:54;;;;;;;6.80;1.70;;;8.30;99.90;;;;;;5056391;28;20113;-82
2022/02/20 00:54:19;;;;;;;6.10;1.45;;;8.20;99.90;;;;;;5055095;28;20024;-82
2022/02/20 00:56:45;;;;;;;8.13;1.75;;;8.10;99.90;;;;;;5055015;28;20029;-82
2022/02/20 00:59:11;;;;;;;8.45;1.80;;;8.10;99.90;;;;;;5054932;28;20053;-82
2022/02/20 01:01:36;;;;;;;3.97;1.10;;;8.20;99.90;;;;;;5054868;28;20481;-82
2022/02/20 01:04:02;;;;;;;7.45;1.60;;;8.10;99.90;;;;;;5054543;28;20063;-82
2022/02/20 01:06:28;;;;;;;7.50;1.80;;;8.10;99.90;;;;;;5056135;28;20021;-82
2022/02/20 01:08:55;;;;;;;6.53;1.50;;;8.20;99.90;;;;;;5054761;28;20032;-82
2022/02/20 01:11:21;;;;;;;8.15;1.88;;;8.10;99.90;;;;;;5054683;28;20534;-82
2022/02/20 01:13:47;;;;;;;9.65;1.67;;;8.10;99.90;;;;;;5055472;28;20028;-83
2022/02/20 01:16:14;;;;;;;4.85;1.50;;;8.10;99.90;;;;;;5054577;28;20112;-82
2022/02/20 01:18:41;;;;;;;5.53;1.88;;;8.10;99.90;;;;;;5054570;28;20029;-83
2022/02/20 01:21:06;;;;;;;5.80;1.08;;;8.00;99.90;;;;;;5054580;28;20029;-82
2022/02/20 01:23:32;;;;;;;6.57;1.58;;;8.00;99.90;;;;;;5054417;28;20040;-82
2022/02/20 01:25:58;;;;;;;7.15;1.60;;;8.10;99.90;;;;;;5054485;28;20021;-82
2022/02/20 01:28:24;;;;;;;7.53;1.55;;;8.00;99.90;;;;;;5054485;28;20025;-82
2022/02/20 01:30:50;;;;;;;3.97;1.20;;;8.10;99.90;;;;;;5054296;28;20460;-83
2022/02/20 01:33:17;;;;;;;5.68;1.67;;;8.10;99.90;;;;;;5054417;28;20028;-82
2022/02/20 01:35:43;;;;;;;7.22;1.27;;;8.00;99.90;;;;;;5053892;28;20476;-82
2022/02/20 01:38:09;;;;;;;5.18;1.58;;;8.00;99.90;;;;;;5054312;28;20067;-83
2022/02/20 01:40:35;;;;;;;3.47;1.30;;;7.90;99.90;;;;;;5054289;28;20060;-82
2022/02/20 01:43:01;;;;;;;6.90;1.35;;;7.90;99.90;;;;;;5054142;28;20480;-82
2022/02/20 01:45:27;;;;;;;6.25;1.58;;;7.90;99.90;;;;;;5054103;28;20044;-82
2022/02/20 01:47:53;;;;;;;5.65;1.45;;;8.00;99.90;;;;;;5054182;28;20064;-82
2022/02/20 01:50:20;;;;;;;4.78;1.48;;;8.00;99.90;;;;;;5055293;28;20383;-82
2022/02/20 01:52:47;;;;;;;8.05;1.90;;;8.00;99.90;;;;;;5053975;28;20053;-81
2022/02/20 01:55:14;;;;;;;7.00;1.70;;;8.00;99.90;;;;;;5053972;28;20029;-82
2022/02/20 01:57:42;;;;;;;6.47;1.48;;;8.00;99.90;;;;;;5053885;28;20029;-82
2022/02/20 02:00:10;;;;;;;7.05;1.80;;;8.00;99.90;;;;;;5054013;28;20025;-82
2022/02/20 02:02:36;;;;;;;4.40;1.17;;;8.00;99.90;;;;;;5053569;28;20044;-82
2022/02/20 02:05:03;;;;;;;5.50;1.50;;;7.90;99.90;;;;;;5053827;28;20492;-82
2022/02/20 02:07:29;;;;;;;5.68;1.42;;;8.00;99.90;;;;;;5053723;28;20033;-82
2022/02/20 02:09:55;;;;;;;6.97;1.65;;;7.90;99.90;;;;;;5054893;28;20396;-82
2022/02/20 02:12:21;;;;;;;7.95;1.48;;;7.90;99.90;;;;;;5053650;28;20500;-82
2022/02/20 02:15:03;;;;;;;4.35;1.33;;;7.90;99.90;;;;;;5053638;28;20025;-81
2022/02/20 02:17:29;;;;;;;4.65;1.20;;;7.90;99.90;;;;;;5053520;28;20025;-82
2022/02/20 02:19:56;;;;;;;4.53;1.33;;;7.90;99.90;;;;;;5054774;28;20029;-82
2022/02/20 02:22:23;;;;;;;4.90;1.58;;;8.00;99.90;;;;;;5053495;28;20484;-82
2022/02/20 02:24:49;;;;;;;8.40;1.67;;;7.90;99.90;;;;;;5054739;28;20127;-82
2022/02/20 02:27:15;;;;;;;5.53;1.60;;;8.00;99.90;;;;;;5053329;28;20025;-82
2022/02/20 02:29:43;;;;;;;5.25;1.67;;;7.90;99.90;;;;;;5053803;28;20484;-82
2022/02/20 02:32:09;;;;;;;5.32;1.50;;;7.90;99.90;;;;;;5053665;28;20021;-81
2022/02/20 02:34:35;;;;;;;5.60;1.15;;;7.90;99.90;;;;;;5053241;28;20507;-82
2022/02/20 02:37:02;;;;;;;5.10;1.20;;;7.90;99.90;;;;;;5054483;28;20100;-83
2022/02/20 02:39:27;;;;;;;2.92;1.30;;;8.00;99.90;;;;;;5053104;28;20025;-83
2022/02/20 02:41:53;;;;;;;3.88;1.30;;;8.00;99.90;;;;;;5053952;28;20483;-82
2022/02/20 02:44:19;;;;;;;6.72;1.40;;;7.90;99.90;;;;;;5052952;28;20021;-82
2022/02/20 02:46:44;;;;;;;6.40;1.52;;;7.90;99.90;;;;;;5052350;28;20028;-83
2022/02/20 02:49:10;;;;;;;6.10;1.10;;;7.90;99.90;;;;;;5052732;28;20029;-83
2022/02/20 02:51:36;;;;;;;4.80;1.20;;;7.90;99.90;;;;;;5052829;28;20099;-83
2022/02/20 02:54:11;;;;;;;3.80;1.08;;;7.90;99.90;;;;;;5053115;28;20388;-82
2022/02/20 02:56:37;;;;;;;4.43;1.20;;;7.90;99.90;;;;;;5054142;28;20028;-83
2022/02/20 02:59:04;;;;;;;5.43;1.30;;;7.90;99.90;;;;;;5052762;28;20033;-82
2022/02/20 03:01:30;;;;;;;5.65;1.15;;;7.90;99.90;;;;;;5052952;28;20029;-83
2022/02/20 03:03:56;;;;;;;5.95;1.08;;;7.90;99.90;;;;;;5052471;28;20493;-82
2022/02/20 03:06:23;;;;;;;6.28;1.58;;;7.90;99.90;;;;;;5052634;28;20021;-82
2022/02/20 03:08:49;;;;;;;3.67;1.05;;;7.80;99.90;;;;;;5053908;28;20500;-83
2022/02/20 03:11:15;;;;;;;4.43;1.27;;;7.90;99.90;;;;;;5052553;28;20412;-83
2022/02/20 03:13:42;;;;;;;4.72;1.38;;;7.90;99.90;;;;;;5052504;28;20037;-82
2022/02/20 03:16:08;;;;;;;4.57;1.45;;;7.90;99.90;;;;;;5053723;28;20021;-82
2022/02/20 03:18:34;;;;;;;5.22;1.08;;;7.90;99.90;;;;;;5052415;28;20035;-82
2022/02/20 03:21:01;;;;;;;4.40;1.13;;;7.90;99.90;;;;;;5052386;28;20059;-83
2022/02/20 03:23:27;;;;;;;4.30;1.20;;;7.90;99.90;;;;;;5052488;28;20021;-82
2022/02/20 03:25:53;;;;;;;3.70;1.20;;;7.90;99.90;;;;;;5052345;28;20369;-83
2022/02/20 03:28:19;;;;;;;4.35;1.08;;;7.80;99.90;;;;;;5052255;28;20036;-82
2022/02/20 03:30:45;;;;;;;6.05;1.05;;;7.80;99.90;;;;;;5052252;28;20496;-82
2022/02/20 03:33:11;;;;;;;2.92;1.02;;;7.80;99.90;;;;;;5052181;28;20488;-82
2022/02/20 03:35:37;;;;;;;7.90;1.42;;;7.90;99.90;;;;;;5053665;28;20036;-82
2022/02/20 03:38:03;;;;;;;3.88;1.10;;;7.90;99.90;;;;;;5052096;28;20028;-82
2022/02/20 03:40:29;;;;;;;4.30;1.00;;;7.90;99.90;;;;;;5053389;28;20501;-82
2022/02/20 03:42:55;;;;;;;3.13;1.20;;;7.90;99.90;;;;;;5051970;28;20059;-82
2022/02/20 03:45:21;;;;;;;3.65;0.90;;;7.80;99.90;;;;;;5051952;28;20021;-82
2022/02/20 03:47:47;;;;;;;4.25;1.10;;;7.80;99.90;;;;;;5053303;28;20089;-82
2022/02/20 03:50:13;;;;;;;2.38;0.95;;;7.80;99.90;;;;;;5051871;28;20017;-82
2022/02/20 03:52:39;;;;;;;2.22;0.82;;;7.80;99.90;;;;;;5053157;28;20447;-82
2022/02/20 03:55:07;;;;;;;5.55;1.08;;;7.70;99.90;;;;;;5051827;28;20031;-82
2022/02/20 03:57:33;;;;;;;6.13;1.08;;;7.70;99.90;;;;;;5051912;28;20021;-84
2022/02/20 03:59:59;;;;;;;5.03;1.00;;;7.70;99.90;;;;;;5051697;28;20028;-83
2022/02/20 04:02:27;;;;;;;4.53;1.08;;;7.70;99.90;;;;;;5049133;28;20025;-82
2022/02/20 04:04:54;;;;;;;5.18;1.50;;;7.80;99.90;;;;;;5015451;28;20401;-83
2022/02/20 04:07:19;;;;;;;4.32;1.13;;;7.70;99.90;;;;;;5015420;28;20429;-82
2022/02/20 04:09:45;;;;;;;2.97;0.93;;;7.70;99.90;;;;;;5033082;28;20045;-82
2022/02/20 04:12:11;;;;;;;3.53;1.13;;;7.70;99.90;;;;;;5015411;28;20397;-82
2022/02/20 04:14:36;;;;;;;2.72;0.80;;;7.70;99.90;;;;;;5015387;28;20032;-82
2022/02/20 04:17:02;;;;;;;3.20;0.88;;;7.70;99.90;;;;;;5015315;28;20037;-83
2022/02/20 04:19:28;;;;;;;3.97;1.05;;;7.70;99.90;;;;;;5015552;28;20048;-82
2022/02/20 04:21:54;;;;;;;3.63;1.00;;;7.70;99.90;;;;;;5015265;28;20029;-82
2022/02/20 04:24:19;;;;;;;2.88;0.88;;;7.70;99.90;;;;;;5015143;28;20025;-83
2022/02/20 04:26:45;;;;;;;1.48;0.70;;;7.80;99.90;;;;;;5015318;28;20029;-82
2022/02/20 04:29:11;;;;;;;4.32;0.98;;;7.70;99.90;;;;;;5015127;28;20022;-82
2022/02/20 04:31:37;;;;;;;1.98;0.68;;;7.70;99.90;;;;;;5032874;28;20044;-82
2022/02/20 04:34:03;;;;;;;1.67;0.73;;;7.70;99.90;;;;;;5015181;28;20025;-82
2022/02/20 04:36:34;;;;;;;4.35;0.90;;;7.70;99.90;;;;;;5015385;28;20026;-83
2022/02/20 04:39:01;;;;;;;3.47;1.05;;;7.70;99.90;;;;;;5015144;28;20576;-82
2022/02/20 04:41:28;;;;;;;1.92;0.80;;;7.70;99.90;;;;;;5015071;28;20022;-82
2022/02/20 04:43:54;;;;;;;5.57;1.02;;;7.70;99.90;;;;;;5032747;28;20036;-83
2022/02/20 04:46:19;;;;;;;2.58;1.10;;;7.70;99.90;;;;;;5015056;28;20029;-83
2022/02/20 04:48:45;;;;;;;3.22;0.90;;;7.70;99.90;;;;;;5015067;28;20018;-83
2022/02/20 04:51:11;;;;;;;3.03;1.10;;;7.70;99.90;;;;;;5015126;28;20600;-83
2022/02/20 04:53:37;;;;;;;3.10;1.10;;;7.70;99.90;;;;;;5014828;28;20029;-83
2022/02/20 04:56:03;;;;;;;3.78;1.00;;;7.70;99.90;;;;;;5014919;28;20029;-83
2022/02/20 04:58:29;;;;;;;3.20;1.00;;;7.70;99.90;;;;;;5015296;28;20026;-83
2022/02/20 05:00:54;;;;;;;2.55;0.95;;;7.70;99.90;;;;;;5014967;28;20026;-83
2022/02/20 05:03:20;;;;;;;1.52;0.60;;;7.70;99.90;;;;;;5031393;28;20497;-83
2022/02/20 05:05:46;;;;;;;1.70;0.88;;;7.70;99.90;;;;;;5051515;28;20070;-83
2022/02/20 05:08:11;;;;;;;2.30;0.90;;;7.70;99.90;;;;;;5051270;28;20021;-83
2022/02/20 05:10:37;;;;;;;4.35;0.82;;;7.70;99.90;;;;;;5052202;28;20384;-83
2022/02/20 05:13:03;;;;;;;2.28;0.73;;;7.70;99.90;;;;;;5054831;28;20027;-83
2022/02/20 05:15:28;;;;;;;7.13;0.80;;;7.70;99.90;;;;;;5054810;28;20025;-82
2022/02/20 05:17:54;;;;;;;2.47;0.70;;;7.70;99.90;;;;;;5055383;28;20071;-82
2022/02/20 05:20:20;;;;;;;1.90;0.70;;;7.70;99.90;;;;;;5054611;28;20025;-83
2022/02/20 05:22:46;;;;;;;2.28;0.80;;;7.70;99.90;;;;;;5054563;28;20063;-82
2022/02/20 05:25:11;;;;;;;3.78;0.80;;;7.70;99.90;;;;;;5054561;28;20493;-82
2022/02/20 05:27:39;;;;;;;6.97;1.02;;;7.70;99.90;;;;;;5054517;28;20503;-83
2022/02/20 05:30:05;;;;;;;1.27;0.65;;;7.60;99.90;;;;;;5054499;28;20047;-83
2022/02/20 05:32:32;;;;;;;2.40;0.90;;;7.60;99.90;;;;;;5054626;28;20056;-83
2022/02/20 05:34:59;;;;;;;3.58;1.08;;;7.60;99.90;;;;;;5054431;28;20058;-82
2022/02/20 05:37:25;;;;;;;2.63;0.90;;;7.60;99.90;;;;;;5054389;28;20028;-83
2022/02/20 05:39:51;;;;;;;1.17;0.70;;;7.60;99.90;;;;;;5054308;28;20498;-83
2022/02/20 05:42:16;;;;;;;2.40;0.73;;;7.70;99.90;;;;;;5054550;28;20035;-83
2022/02/20 05:44:42;;;;;;;3.03;0.85;;;7.60;99.90;;;;;;5054243;28;20124;-82
2022/02/20 05:47:09;;;;;;;2.20;0.70;;;7.60;99.90;;;;;;5054145;28;20031;-83
2022/02/20 05:49:35;;;;;;;2.60;0.80;;;7.60;99.90;;;;;;5054202;28;20108;-83
2022/02/20 05:52:01;;;;;;;2.85;0.90;;;7.60;99.90;;;;;;5053959;28;20155;-83
2022/02/20 05:54:28;;;;;;;2.85;0.70;;;7.60;99.90;;;;;;5055337;28;20033;-83
2022/02/20 05:56:54;;;;;;;1.10;0.60;;;7.60;99.90;;;;;;5053977;28;20032;-83
2022/02/20 05:59:20;;;;;;;1.42;0.60;;;7.60;99.90;;;;;;5053990;28;20128;-84
2022/02/20 06:01:46;;;;;;;1.50;0.60;;;7.60;99.90;;;;;;5054026;28;20056;-83
2022/02/20 06:04:12;;;;;;;3.00;0.90;;;7.60;99.90;;;;;;5053637;28;20439;-83
2022/02/20 06:06:38;;;;;;;1.25;0.80;;;7.60;99.90;;;;;;5053933;28;20025;-83
2022/02/20 06:09:03;;;;;;;2.08;0.90;;;7.50;99.90;;;;;;5055290;28;20074;-82
2022/02/20 06:11:35;;;;;;;1.75;0.70;;;7.50;99.90;;;;;;5053677;28;20074;-83
2022/02/20 06:14:00;;;;;;;4.13;0.80;;;7.50;99.90;;;;;;5054994;28;20128;-83
2022/02/20 06:16:26;;;;;;;2.28;0.65;;;7.60;99.90;;;;;;5053619;28;20065;-83
2022/02/20 06:18:52;;;;;;;2.42;0.82;;;7.60;99.90;;;;;;5053706;28;20025;-82
2022/02/20 06:21:18;;;;;;;2.83;0.85;;;7.50;99.90;;;;;;5053532;28;20054;-83
2022/02/20 06:23:43;;;;;;;2.15;0.80;;;7.50;99.90;;;;;;5053366;28;20039;-82
2022/02/20 06:26:09;;;;;;;2.22;0.88;;;7.50;99.90;;;;;;5036778;28;20029;-83
2022/02/20 06:28:35;;;;;;;0.95;0.50;;;7.50;99.90;;;;;;5053443;28;20396;-83
2022/02/20 06:31:01;;;;;;;3.13;0.82;;;7.50;99.90;;;;;;5053492;28;20059;-83
2022/02/20 06:33:27;;;;;;;1.08;0.52;;;7.50;99.90;;;;;;5053376;28;20029;-83
2022/02/20 06:35:52;;;;;;;4.43;0.80;;;7.50;99.90;;;;;;5053298;28;20032;-83
2022/02/20 06:38:18;;;;;;;0.88;0.55;;;7.50;99.90;;;;;;5053227;28;20078;-83
2022/02/20 06:40:44;;;;;;;2.53;0.57;;;7.50;99.90;;;;;;5053270;28;20032;-83
2022/02/20 06:43:09;;;;;;;2.95;0.80;;;7.50;99.90;;;;;;5053216;28;20021;-82
2022/02/20 06:45:35;;;;;;;3.33;0.50;;;7.50;99.90;;;;;;5053004;28;20021;-82
2022/02/20 06:48:01;;;;;;;4.13;0.65;;;7.50;99.90;;;;;;5053006;28;20067;-83
2022/02/20 06:50:26;;;;;;;2.70;0.80;;;7.50;99.90;;;;;;5053098;28;20025;-83
2022/02/20 06:52:52;;;;;;;2.22;0.70;;;7.50;99.90;;;;;;5052979;28;20437;-83
2022/02/20 06:55:18;;;;;;;2.10;0.70;;;7.50;99.90;;;;;;5053614;28;20159;-83
2022/02/20 06:57:43;;;;;;;1.55;0.68;;;7.50;99.90;;;;;;5052846;28;20032;-83
2022/02/20 07:00:15;;;;;;;1.90;0.80;;;7.50;99.90;;;;;;5052808;28;20032;-82
2022/02/20 07:02:41;;;;;;;3.05;0.63;;;7.50;99.90;;;;;;5052562;28;20056;-82
2022/02/20 07:05:08;;;;;;;2.63;0.75;;;7.40;99.90;;;;;;5054165;28;20025;-83
2022/02/20 07:07:35;;;;;;;0.60;0.40;;;7.40;99.90;;;;;;5052743;28;20018;-82
2022/02/20 07:10:03;;;;;;;1.55;0.55;;;7.40;99.90;;;;;;5052657;28;20032;-83
2022/02/20 07:12:29;;;;;;;3.33;0.70;;;7.40;99.90;;;;;;5052595;28;20017;-83
2022/02/20 07:14:55;;;;;;;0.75;0.50;;;7.50;99.90;;;;;;5052487;28;20028;-83
2022/02/20 07:17:21;;;;;;;1.48;0.57;;;7.40;99.90;;;;;;5052372;28;20051;-83
2022/02/20 07:19:47;;;;;;;2.15;0.70;;;7.40;99.90;;;;;;5052418;28;20500;-83
2022/02/20 07:22:12;;;;;;;2.72;0.77;;;7.50;99.90;;;;;;5052411;28;20053;-83
2022/02/20 07:24:38;;;;;;;0.70;0.50;;;7.50;99.90;;;;;;5052744;28;20063;-83
2022/02/20 07:27:04;;;;;;;1.50;0.70;;;7.50;99.90;;;;;;5036044;28;20052;-83
2022/02/20 07:29:30;;;;;;;1.25;0.65;;;7.50;99.90;;;;;;5053590;28;20017;-83
2022/02/20 07:31:56;;;;;;;1.10;0.52;;;7.50;99.90;;;;;;5053654;28;20024;-83
2022/02/20 07:34:24;;;;;;;1.27;0.55;;;7.50;99.90;;;;;;5051858;28;20476;-83
2022/02/20 07:36:49;;;;;;;2.50;0.68;;;7.50;99.90;;;;;;5052339;28;20029;-83
2022/02/20 07:39:16;;;;;;;2.13;0.80;;;7.50;99.90;;;;;;5052198;28;20544;-83
2022/02/20 07:41:42;;;;;;;0.75;0.55;;;7.50;99.90;;;;;;5052120;28;20028;-83
2022/02/20 07:44:08;;;;;;;2.22;0.50;;;7.50;99.90;;;;;;5051999;28;20064;-83
2022/02/20 07:46:33;;;;;;;1.33;0.60;;;7.50;99.90;;;;;;5051996;28;20365;-83
2022/02/20 07:48:59;;;;;;;1.27;0.70;;;7.50;99.90;;;;;;5052059;28;20021;-83
2022/02/20 07:51:25;;;;;;;1.50;0.70;;;7.50;99.90;;;;;;5052128;28;20028;-83
2022/02/20 07:53:51;;;;;;;2.35;0.60;;;7.50;99.90;;;;;;5053211;28;20079;-83
2022/02/20 07:56:17;;;;;;;2.22;0.70;;;7.50;99.90;;;;;;5052074;28;20132;-84
2022/02/20 07:58:46;;;;;;;1.20;0.50;;;7.60;99.90;;;;;;5051976;28;20044;-83
2022/02/20 08:01:13;;;;;;;2.22;0.50;;;7.60;99.90;;;;;;5051822;28;20419;-83
2022/02/20 08:03:39;;;;;;;1.10;0.50;;;7.60;99.90;;;;;;5051824;28;20044;-83
2022/02/20 08:06:05;;;;;;;1.20;0.57;;;7.60;99.90;;;;;;5051953;28;20043;-83
2022/02/20 08:08:32;;;;;;;1.48;0.60;;;7.60;99.90;;;;;;5053278;28;20025;-83
2022/02/20 08:11:00;;;;;;;2.53;0.65;;;7.60;99.90;;;;;;5053101;28;20366;-82
2022/02/20 08:13:26;;;;;;;1.50;0.68;;;7.50;99.90;;;;;;5051717;28;20028;-83
2022/02/20 08:15:52;;;;;;;0.63;0.50;;;7.50;99.90;;;;;;5051747;28;20507;-83
2022/02/20 08:18:19;;;;;;;1.70;0.60;;;7.60;99.90;;;;;;5051823;28;20049;-84
2022/02/20 08:20:45;;;;;;;3.15;0.60;;;7.60;99.90;;;;;;5051786;28;20029;-83
2022/02/20 08:23:12;;;;;;;3.30;1.10;;;7.60;99.90;;;;;;5051586;28;20488;-83
2022/02/20 08:25:39;;;;;;;1.58;0.68;;;7.60;99.90;;;;;;5051635;28;20419;-83
2022/02/20 08:28:05;;;;;;;4.15;0.70;;;7.60;99.90;;;;;;5051769;28;20024;-83
2022/02/20 08:30:30;;;;;;;0.70;0.70;;;7.60;99.90;;;;;;5051635;28;20171;-83
2022/02/20 08:32:56;;;;;;;1.20;0.50;;;7.60;99.90;;;;;;5051671;28;20063;-83
2022/02/20 08:35:22;;;;;;;4.35;0.90;;;7.60;99.90;;;;;;5051492;28;20032;-83
2022/02/20 08:37:47;;;;;;;2.30;0.80;;;7.60;99.90;;;;;;5051506;28;20029;-83
2022/02/20 08:40:17;;;;;;;1.40;0.63;;;7.60;99.90;;;;;;5051491;28;20048;-83
2022/02/20 08:42:43;;;;;;;1.80;0.70;;;7.60;99.90;;;;;;5051381;28;20032;-83
2022/02/20 08:45:10;;;;;;;2.17;0.80;;;7.70;99.90;;;;;;5051789;28;20021;-84
2022/02/20 08:47:36;;;;;;;2.30;1.02;;;7.80;99.90;;;;;;5056232;28;20460;-82
2022/02/20 08:50:04;;;;;;;1.80;0.60;;;7.70;99.90;;;;;;5055540;28;20021;-83
2022/02/20 08:52:30;;;;;;;3.00;0.70;;;7.70;99.90;;;;;;5055248;28;20068;-82
2022/02/20 08:54:56;;;;;;;3.42;0.88;;;7.70;99.90;;;;;;5055327;28;20058;-83
2022/02/20 08:57:22;;;;;;;1.73;0.75;;;7.80;99.90;;;;;;5055482;28;20029;-83
2022/02/20 08:59:49;;;;;;;1.77;0.85;;;7.70;99.90;;;;;;5056485;28;20025;-83
2022/02/20 09:02:15;;;;;;;3.13;0.90;;;7.70;99.90;;;;;;5054110;28;20025;-83
2022/02/20 09:04:41;;;;;;;3.15;0.80;;;7.70;99.90;;;;;;5018675;28;20034;-83
2022/02/20 09:07:07;;;;;;;1.90;0.70;;;7.70;99.90;;;;;;5018474;28;20021;-83
2022/02/20 09:09:34;;;;;;;1.58;0.60;;;7.70;99.90;;;;;;5036732;28;20021;-83
2022/02/20 09:12:00;;;;;;;2.22;0.80;;;7.70;99.90;;;;;;5018798;28;20075;-83
2022/02/20 09:14:26;;;;;;;2.28;0.93;;;7.70;99.90;;;;;;5018506;28;20060;-84
2022/02/20 09:16:51;;;;;;;1.00;0.77;;;7.70;99.90;;;;;;5018552;28;20430;-83
2022/02/20 09:19:17;;;;;;;1.13;0.60;;;7.70;99.90;;;;;;5018333;28;20084;-83
2022/02/20 09:21:43;;;;;;;2.05;0.68;;;7.70;99.90;;;;;;5018637;28;20021;-83
2022/02/20 09:24:09;;;;;;;1.10;0.50;;;7.70;99.90;;;;;;5018181;28;20438;-83
2022/02/20 09:26:35;;;;;;;3.05;0.75;;;7.60;99.90;;;;;;5018376;28;20131;-83
2022/02/20 09:29:00;;;;;;;2.55;0.80;;;7.70;99.90;;;;;;5018210;28;20029;-83
2022/02/20 09:31:27;;;;;;;1.88;0.68;;;7.70;99.90;;;;;;5036235;28;20473;-83
2022/02/20 09:33:53;;;;;;;1.40;0.70;;;7.70;99.90;;;;;;5036050;28;20091;-83
2022/02/20 09:36:19;;;;;;;1.42;0.80;;;7.70;99.90;;;;;;5018191;28;20385;-82
2022/02/20 09:38:45;;;;;;;1.92;0.50;;;7.70;99.90;;;;;;5017980;28;20021;-83
2022/02/20 09:41:12;;;;;;;1.40;0.70;;;7.70;99.90;;;;;;5017996;28;20026;-84
2022/02/20 09:43:40;;;;;;;3.05;0.70;;;7.70;99.90;;;;;;5017957;28;20061;-83
2022/02/20 09:46:07;;;;;;;2.33;0.75;;;7.70;99.90;;;;;;5018146;28;20052;-83
2022/02/20 09:48:33;;;;;;;0.95;0.55;;;7.70;99.90;;;;;;5018194;28;20540;-83
2022/02/20 09:50:59;;;;;;;2.50;0.60;;;7.70;99.90;;;;;;5017992;28;20025;-82
2022/02/20 09:53:29;;;;;;;1.30;0.60;;;7.80;99.90;;;;;;5017714;28;20384;-82
2022/02/20 09:55:55;;;;;;;0.73;0.60;;;7.80;99.90;;;;;;5017378;28;20021;-82
2022/02/20 09:58:21;;;;;;;1.17;0.70;;;7.80;99.90;;;;;;5017563;28;20076;-84
2022/02/20 10:01:03;;;;;;;1.55;0.52;;;7.80;99.90;;;;;;5017644;28;20052;-83
2022/02/20 10:03:31;;;;;;;1.25;0.60;;;7.80;99.90;;;;;;5036109;28;20128;-83
2022/02/20 10:05:57;;;;;;;2.42;0.60;;;7.80;99.90;;;;;;5053880;28;20078;-83
2022/02/20 10:08:23;;;;;;;1.95;0.77;;;7.80;99.90;;;;;;5037180;28;20117;-84
2022/02/20 10:10:49;;;;;;;1.88;0.90;;;7.90;99.90;;;;;;5055175;28;20520;-83
2022/02/20 10:13:26;;;;;;;1.70;0.57;;;7.90;99.90;;;;;;5053837;28;20056;-83
2022/02/20 10:15:52;;;;;;;0.80;0.60;;;7.90;99.90;;;;;;5054083;28;20025;-83
2022/02/20 10:18:20;;;;;;;2.28;0.70;;;7.90;99.90;;;;;;5053615;28;20032;-83
2022/02/20 10:20:47;;;;;;;1.10;0.70;;;7.90;99.90;;;;;;5053693;28;20029;-83
2022/02/20 10:23:15;;;;;;;2.08;0.80;;;7.90;99.90;;;;;;5053601;28;20027;-82
2022/02/20 10:25:44;;;;;;;0.82;0.60;;;7.90;99.90;;;;;;5053600;28;20108;-83
2022/02/20 10:28:11;;;;;;;1.42;0.70;;;7.90;99.90;;;;;;5053451;28;20506;-83
2022/02/20 10:30:38;;;;;;;1.52;0.60;;;7.80;99.90;;;;;;5053555;28;20048;-82
2022/02/20 10:33:20;;;;;;;1.75;0.70;;;7.80;99.90;;;;;;5053877;28;20036;-84
2022/02/20 10:35:49;;;;;;;1.60;0.80;;;7.80;99.90;;;;;;5053358;28;20039;-82
2022/02/20 10:38:17;;;;;;;1.38;0.60;;;7.80;99.90;;;;;;5053315;28;20075;-83
2022/02/20 10:40:47;;;;;;;1.65;0.60;;;7.80;99.90;;;;;;5053155;28;20032;-82
2022/02/20 10:43:33;;;;;;;0.80;0.63;;;7.80;99.90;;;;;;5053125;28;20025;-82
2022/02/20 10:46:16;;;;;;;0.90;0.52;;;7.80;99.90;;;;;;5053471;28;20443;-84
2022/02/20 10:48:52;;;;;;;2.15;0.80;;;7.80;99.90;;;;;;5053345;28;20389;-82
2022/02/20 10:51:19;;;;;;;2.00;0.80;;;7.80;99.90;;;;;;5053239;28;20067;-83
2022/02/20 10:53:48;;;;;;;0.90;0.63;;;7.80;99.90;;;;;;5052893;28;20025;-81
2022/02/20 10:56:14;;;;;;;0.93;0.65;;;7.80;99.90;;;;;;5052908;28;20025;-81
2022/02/20 10:58:45;;;;;;;1.20;0.75;;;7.80;99.90;;;;;;5052954;28;20043;-82
2022/02/20 11:01:25;;;;;;;1.35;0.50;;;7.80;99.90;;;;;;5052809;28;20083;-81
2022/02/20 11:04:01;;;;;;;1.63;0.70;;;7.90;99.90;;;;;;5052670;28;20103;-82
2022/02/20 11:06:29;;;;;;;3.53;0.75;;;7.90;99.90;;;;;;5052876;28;20060;-83
2022/02/20 11:08:56;;;;;;;1.38;0.68;;;7.90;99.90;;;;;;5051964;28;20450;-83
2022/02/20 11:11:42;;;;;;;0.98;0.60;;;7.90;99.90;;;;;;5053877;28;20013;-81
2022/02/20 11:14:08;;;;;;;1.35;0.90;;;7.90;99.90;;;;;;5052735;28;20511;-81
2022/02/20 11:16:39;;;;;;;1.70;0.50;;;8.00;99.90;;;;;;5052681;28;20033;-81
2022/02/20 11:19:05;;;;;;;1.08;0.57;;;8.00;99.90;;;;;;5052430;28;20029;-82
2022/02/20 11:21:36;;;;;;;1.17;0.57;;;8.00;99.90;;;;;;5052394;28;20082;-85
2022/02/20 11:24:04;;;;;;;1.48;0.63;;;8.00;99.90;;;;;;5052448;28;20400;-82
2022/02/20 11:26:35;;;;;;;2.63;0.70;;;8.00;99.90;;;;;;5052297;28;20044;-83
2022/02/20 11:29:01;;;;;;;1.50;0.70;;;8.00;99.90;;;;;;5052387;28;20115;-82
2022/02/20 11:31:28;;;;;;;1.60;0.80;;;8.00;99.90;;;;;;5052384;28;20040;-81
2022/02/20 11:33:55;;;;;;;0.90;0.60;;;7.90;99.90;;;;;;5052134;28;20028;-82
2022/02/20 11:36:24;;;;;;;1.13;0.50;;;7.90;99.90;;;;;;5052123;28;20477;-82
2022/02/20 11:39:11;;;;;;;1.23;0.70;;;7.90;99.90;;;;;;5052195;28;20032;-83
2022/02/20 11:41:39;;;;;;;2.13;0.57;;;7.90;99.90;;;;;;5052386;28;20493;-81
2022/02/20 11:44:14;;;;;;;1.15;0.65;;;7.90;99.90;;;;;;5051915;28;20025;-82
2022/02/20 11:46:51;;;;;;;3.22;0.80;;;7.90;99.90;;;;;;5052005;28;20025;-81
2022/02/20 11:49:26;;;;;;;3.42;0.70;;;7.90;99.90;;;;;;5035621;28;20056;-82
2022/02/20 11:51:58;;;;;;;2.65;0.70;;;7.90;99.90;;;;;;5051982;28;20473;-81
2022/02/20 11:54:25;;;;;;;1.63;0.60;;;7.90;99.90;;;;;;5051980;28;20021;-82
2022/02/20 11:57:12;;;;;;;1.45;0.70;;;7.90;99.90;;;;;;5051940;28;20040;-83
2022/02/20 11:59:39;;;;;;;1.35;0.80;;;7.90;99.90;;;;;;5051983;28;20024;-81
2022/02/20 12:02:13;;;;;;;1.25;0.70;;;7.80;99.90;;;;;;5051919;28;20036;-81
2022/02/20 12:04:50;;;;;;;1.52;1.10;;;7.80;99.90;;;;;;5051730;28;20033;-82
2022/02/20 12:07:43;;;;;;;1.88;0.70;;;7.80;99.90;;;;;;5053294;28;20024;-82
2022/02/20 12:10:29;;;;;;;0.75;0.52;;;7.80;99.90;;;;;;5051797;28;20060;-81
2022/02/20 12:12:58;;;;;;;1.05;0.50;;;7.80;99.90;;;;;;5051756;28;20481;-81
2022/02/20 12:15:41;;;;;;;2.95;0.70;;;7.80;99.90;;;;;;5051741;28;20021;-82
2022/02/20 12:18:13;;;;;;;1.05;0.60;;;7.80;99.90;;;;;;5051913;28;20048;-81
2022/02/20 12:20:51;;;;;;;1.25;0.60;;;7.70;99.90;;;;;;5054879;28;20424;-81
2022/02/20 12:23:47;;;;;;;1.08;0.70;;;7.80;99.90;;;;;;5055678;28;20530;-81
2022/02/20 12:26:40;;;;;;;0.80;0.65;;;7.70;99.90;;;;;;5047326;28;20064;-81
2022/02/20 12:29:13;;;;;;;1.92;0.70;;;7.70;99.90;;;;;;5055715;28;20477;-82
2022/02/20 12:31:57;;;;;;;1.60;0.70;;;7.70;99.90;;;;;;5055653;28;20437;-82
2022/02/20 12:34:49;;;;;;;2.53;0.70;;;7.70;99.90;;;;;;5055555;28;20032;-81
2022/02/20 12:37:17;;;;;;;1.42;0.60;;;7.70;99.90;;;;;;5055538;28;20396;-82
2022/02/20 12:39:43;;;;;;;2.55;0.80;;;7.70;99.90;;;;;;5055458;28;20021;-81
2022/02/20 12:42:09;;;;;;;1.55;0.70;;;7.70;99.90;;;;;;5055404;28;20040;-81
2022/02/20 12:44:40;;;;;;;2.33;0.88;;;7.70;99.90;;;;;;5055287;28;20369;-81
2022/02/20 12:47:07;;;;;;;3.60;0.65;;;7.80;99.90;;;;;;5055556;28;20021;-82
2022/02/20 12:49:41;;;;;;;1.92;1.00;;;7.80;99.90;;;;;;5055266;28;20021;-82
2022/02/20 12:52:09;;;;;;;2.13;0.73;;;7.80;99.90;;;;;;5055248;28;20053;-81
2022/02/20 12:54:36;;;;;;;2.83;0.60;;;7.80;99.90;;;;;;5055352;28;20032;-81
2022/02/20 12:57:09;;;;;;;1.35;0.77;;;7.90;99.90;;;;;;5055103;28;20029;-81
2022/02/20 12:59:58;;;;;;;2.25;0.90;;;7.90;99.90;;;;;;5055109;28;20056;-81